createdAt,value
2019-02-12T00:00:35.174Z,2.47
2019-02-12T00:03:03.685Z,2.87
2019-02-12T00:05:33.726Z,1.97
2019-02-12T00:08:02.231Z,3.00
2019-02-12T00:10:30.679Z,1.87
2019-02-12T00:12:59.198Z,2.70
2019-02-12T00:15:30.012Z,2.27
2019-02-12T00:17:58.661Z,2.70
2019-02-12T00:20:27.255Z,2.33
2019-02-12T00:22:55.806Z,1.70
2019-02-12T00:25:27.576Z,2.77
2019-02-12T00:27:56.205Z,2.00
2019-02-12T00:30:24.717Z,2.57
2019-02-12T00:32:53.196Z,2.67
2019-02-12T00:35:21.893Z,1.57
2019-02-12T00:37:50.294Z,2.27
2019-02-12T00:40:18.974Z,2.80
2019-02-12T00:42:47.405Z,2.90
2019-02-12T00:45:15.982Z,1.90
2019-02-12T00:47:44.421Z,2.23
2019-02-12T00:50:12.897Z,2.43
2019-02-12T00:52:41.334Z,1.93
2019-02-12T00:55:10.210Z,2.10
2019-02-12T00:57:38.888Z,2.00
2019-02-12T01:00:10.378Z,2.20
2019-02-12T01:02:38.853Z,1.80
2019-02-12T01:05:07.558Z,2.63
2019-02-12T01:07:36.016Z,2.40
2019-02-12T01:10:07.609Z,2.50
2019-02-12T01:12:36.127Z,2.20
2019-02-12T01:15:07.393Z,2.47
2019-02-12T01:17:35.799Z,2.10
2019-02-12T01:20:06.167Z,2.60
2019-02-12T01:22:34.584Z,2.13
2019-02-12T01:25:03.006Z,2.23
2019-02-12T01:27:31.421Z,2.30
2019-02-12T01:30:00.203Z,2.70
2019-02-12T01:32:31.626Z,2.40
2019-02-12T01:35:00.202Z,2.10
2019-02-12T01:37:28.995Z,2.53
2019-02-12T01:39:57.389Z,2.53
2019-02-12T01:42:25.860Z,2.10
2019-02-12T01:44:54.263Z,2.23
2019-02-12T01:47:22.675Z,2.70
2019-02-12T01:49:51.537Z,2.10
2019-02-12T01:52:19.943Z,2.27
2019-02-12T01:54:48.432Z,2.33
2019-02-12T01:57:16.887Z,2.00
2019-02-12T01:59:45.369Z,2.37
2019-02-12T02:02:14.027Z,1.90
2019-02-12T02:04:42.481Z,2.20
2019-02-12T02:07:10.939Z,2.17
2019-02-12T02:09:39.358Z,2.13
2019-02-12T02:12:07.775Z,1.80
2019-02-12T02:14:36.193Z,2.23
2019-02-12T02:17:04.635Z,2.33
2019-02-12T02:19:33.029Z,2.10
2019-02-12T02:22:01.461Z,2.50
2019-02-12T02:24:29.909Z,2.43
2019-02-12T02:26:58.320Z,2.00
2019-02-12T02:29:26.741Z,1.73
2019-02-12T02:31:55.494Z,2.17
2019-02-12T02:34:24.133Z,2.10
2019-02-12T02:36:52.569Z,1.53
2019-02-12T02:39:21.130Z,2.27
2019-02-12T02:41:49.579Z,1.57
2019-02-12T02:44:17.986Z,1.40
2019-02-12T02:46:46.423Z,1.90
2019-02-12T02:49:14.853Z,2.17
2019-02-12T02:51:43.300Z,2.23
2019-02-12T02:54:11.702Z,2.23
2019-02-12T02:56:40.105Z,1.70
2019-02-12T02:59:08.538Z,1.90
2019-02-12T03:01:36.940Z,2.47
2019-02-12T03:04:05.621Z,1.93
2019-02-12T03:06:34.038Z,2.20
2019-02-12T03:09:03.629Z,1.30
2019-02-12T03:11:32.087Z,1.87
2019-02-12T03:14:00.582Z,1.77
2019-02-12T03:16:29.271Z,1.30
2019-02-12T03:18:57.797Z,1.20
2019-02-12T03:21:26.495Z,1.70
2019-02-12T03:23:54.906Z,1.87
2019-02-12T03:29:15.015Z,1.90
2019-02-12T03:31:56.023Z,1.80
2019-02-12T03:34:36.637Z,1.30
2019-02-12T03:37:05.579Z,1.80
2019-02-12T03:43:03.792Z,1.40
2019-02-12T03:45:52.113Z,1.83
2019-02-12T03:48:40.590Z,1.20
2019-02-12T03:51:28.412Z,1.77
2019-02-12T03:54:16.475Z,1.80
2019-02-12T04:00:33.359Z,1.90
2019-02-12T04:03:21.286Z,1.77
2019-02-12T04:05:49.710Z,1.90
2019-02-12T04:08:38.676Z,1.93
2019-02-12T04:11:26.670Z,1.77
2019-02-12T04:14:14.491Z,2.00
2019-02-12T04:17:02.266Z,1.90
2019-02-12T04:19:30.695Z,1.90
2019-02-12T04:21:59.129Z,2.00
2019-02-12T04:24:46.881Z,1.23
2019-02-12T04:27:34.649Z,1.80
2019-02-12T04:30:22.547Z,2.50
2019-02-12T04:35:46.443Z,2.20
2019-02-12T04:38:48.326Z,2.40
2019-02-12T04:41:23.922Z,1.93
2019-02-12T04:44:11.812Z,2.67
2019-02-12T04:46:59.595Z,1.83
2019-02-12T04:49:47.398Z,1.50
2019-02-12T04:52:35.157Z,1.97
2019-02-12T04:55:22.959Z,1.80
2019-02-12T04:58:10.748Z,2.33
2019-02-12T05:00:59.518Z,1.80
2019-02-12T05:03:48.082Z,1.70
2019-02-12T05:06:29.018Z,2.57
2019-02-12T05:09:17.576Z,1.90
2019-02-12T05:12:05.497Z,1.80
2019-02-12T05:14:53.297Z,2.67
2019-02-12T05:17:21.730Z,2.00
2019-02-12T05:19:50.162Z,2.00
2019-02-12T05:22:43.452Z,1.80
2019-02-12T05:25:27.532Z,1.60
2019-02-12T05:28:15.657Z,1.43
2019-02-12T05:31:03.469Z,2.07
2019-02-12T05:33:51.242Z,2.13
2019-02-12T05:36:19.689Z,1.47
2019-02-12T05:39:07.506Z,2.10
2019-02-12T05:41:55.387Z,2.00
2019-02-12T05:44:43.640Z,1.80
2019-02-12T05:50:26.144Z,2.90
2019-02-12T05:53:14.011Z,2.50
2019-02-12T05:55:42.453Z,1.90
2019-02-12T06:01:19.599Z,2.17
2019-02-12T06:04:00.548Z,2.93
2019-02-12T06:06:42.002Z,2.13
2019-02-12T06:09:22.925Z,1.87
2019-02-12T06:12:03.981Z,2.40
2019-02-12T06:14:44.571Z,2.57
2019-02-12T06:17:25.945Z,2.40
2019-02-12T06:20:07.625Z,3.40
2019-02-12T06:25:31.134Z,3.37
2019-02-12T06:27:59.585Z,2.63
2019-02-12T06:30:28.030Z,3.03
2019-02-12T06:33:16.428Z,2.87
2019-02-12T06:36:04.751Z,3.03
2019-02-12T06:38:52.536Z,3.10
2019-02-12T06:41:40.299Z,2.70
2019-02-12T06:44:28.139Z,2.87
2019-02-12T06:47:15.925Z,3.77
2019-02-12T06:53:32.154Z,2.77
2019-02-12T06:56:19.904Z,3.13
2019-02-12T06:58:48.380Z,2.73
2019-02-12T07:01:36.181Z,2.70
2019-02-12T07:04:16.966Z,3.50
2019-02-12T07:06:57.984Z,2.70
2019-02-12T07:09:38.891Z,1.67
2019-02-12T07:12:19.747Z,4.27
2019-02-12T07:15:00.306Z,2.50
2019-02-12T07:17:43.234Z,1.73
2019-02-12T07:20:24.191Z,1.43
2019-02-12T07:23:05.352Z,3.33
2019-02-12T07:25:46.069Z,3.33
2019-02-12T07:28:27.894Z,3.13
2019-02-12T07:31:09.048Z,1.90
2019-02-12T07:34:16.401Z,3.47
2019-02-12T07:37:23.501Z,3.20
2019-02-12T07:40:30.851Z,3.63
2019-02-12T07:43:20.210Z,2.67
2019-02-12T07:46:28.296Z,3.20
2019-02-12T07:49:40.008Z,2.80
2019-02-12T07:56:05.200Z,2.83
2019-02-12T07:59:13.102Z,3.50
2019-02-12T08:02:20.830Z,2.47
2019-02-12T08:08:27.186Z,2.97
2019-02-12T08:11:08.477Z,2.63
2019-02-12T08:13:57.917Z,3.03
2019-02-12T08:17:05.369Z,2.20
2019-02-12T08:19:56.757Z,2.00
2019-02-12T08:23:05.380Z,2.90
2019-02-12T08:26:12.734Z,2.80
2019-02-12T08:29:21.609Z,3.00
2019-02-12T08:32:30.631Z,3.40
2019-02-12T08:35:37.836Z,3.73
2019-02-12T08:38:45.378Z,2.93
2019-02-12T08:41:53.993Z,3.00
2019-02-12T08:45:04.295Z,2.33
2019-02-12T08:48:14.995Z,2.40
2019-02-12T08:51:22.151Z,2.43
2019-02-12T08:54:29.503Z,3.73
2019-02-12T08:57:37.242Z,4.27
2019-02-12T09:00:44.491Z,3.20
2019-02-12T09:03:53.197Z,2.03
2019-02-12T09:06:34.859Z,3.33
2019-02-12T09:09:15.593Z,2.23
2019-02-12T09:11:56.854Z,4.23
2019-02-12T09:17:20.690Z,2.03
2019-02-12T09:20:01.513Z,3.93
2019-02-12T09:22:41.918Z,3.60
2019-02-12T09:25:51.019Z,2.13
2019-02-12T09:28:59.662Z,2.00
2019-02-12T09:32:07.166Z,3.50
2019-02-12T09:35:14.292Z,3.60
2019-02-12T09:38:21.545Z,2.57
2019-02-12T09:41:30.349Z,1.70
2019-02-12T09:44:44.586Z,2.30
2019-02-12T09:47:34.250Z,1.77
2019-02-12T09:50:43.826Z,2.60
2019-02-12T10:00:28.657Z,1.93
2019-02-12T10:03:35.817Z,1.77
2019-02-12T10:06:47.585Z,1.60
2019-02-12T10:09:31.097Z,1.93
2019-02-12T10:12:38.444Z,2.57
2019-02-12T10:15:45.619Z,2.40
2019-02-12T10:18:35.302Z,3.40
2019-02-12T10:21:42.796Z,3.80
2019-02-12T10:24:52.326Z,4.30
2019-02-12T10:28:00.270Z,3.70
2019-02-12T10:31:07.957Z,3.07
2019-02-12T10:33:58.392Z,3.67
2019-02-12T10:36:46.233Z,3.60
2019-02-12T10:39:14.807Z,5.67
2019-02-12T10:42:02.856Z,3.93
2019-02-12T10:48:08.661Z,4.47
2019-02-12T10:50:57.038Z,2.30
2019-02-12T10:53:39.675Z,4.03
2019-02-12T10:56:20.561Z,2.70
2019-02-12T10:59:01.755Z,2.10
2019-02-12T11:01:42.943Z,2.37
2019-02-12T11:04:23.714Z,3.87
2019-02-12T11:07:05.302Z,2.50
2019-02-12T11:09:46.302Z,3.97
2019-02-12T11:12:27.052Z,3.30
2019-02-12T11:15:08.002Z,3.57
2019-02-12T11:17:49.676Z,2.17
2019-02-12T11:20:30.821Z,1.90
2019-02-12T11:23:12.221Z,1.80
2019-02-12T11:25:53.924Z,2.10
2019-02-12T11:31:17.930Z,3.20
2019-02-12T11:33:58.468Z,2.30
2019-02-12T11:48:21.062Z,1.90
2019-02-12T11:51:02.306Z,1.87
2019-02-12T11:53:45.525Z,2.03
2019-02-12T11:56:29.570Z,1.87
2019-02-12T11:59:10.441Z,1.87
2019-02-12T12:01:53.328Z,1.60
2019-02-12T12:04:34.930Z,1.70
2019-02-12T12:07:16.026Z,1.93
2019-02-12T12:09:56.777Z,1.93
2019-02-12T12:12:37.754Z,2.07
2019-02-12T12:15:18.420Z,1.77
2019-02-12T12:17:58.930Z,2.53
2019-02-12T12:20:39.488Z,2.80
2019-02-12T12:23:20.171Z,2.70
2019-02-12T12:26:01.139Z,2.20
2019-02-12T12:28:29.666Z,2.97
2019-02-12T12:34:12.922Z,1.70
2019-02-12T12:37:00.803Z,2.70
2019-02-12T12:39:48.665Z,1.90
2019-02-12T12:42:36.865Z,2.30
2019-02-12T12:45:24.688Z,1.93
2019-02-12T12:48:12.885Z,2.67
2019-02-12T12:51:00.766Z,2.40
2019-02-12T12:53:29.366Z,2.50
2019-02-12T12:56:17.217Z,2.17
2019-02-12T12:59:05.076Z,2.33
2019-02-12T13:01:53.079Z,2.00
2019-02-12T13:04:40.944Z,2.10
2019-02-12T13:07:28.838Z,1.80
2019-02-12T13:10:17.169Z,2.20
2019-02-12T13:13:05.007Z,2.57
2019-02-12T13:15:52.509Z,3.73
2019-02-12T13:18:40.283Z,2.53
2019-02-12T13:21:28.025Z,2.30
2019-02-12T13:24:15.861Z,2.13
2019-02-12T13:27:03.724Z,1.83
2019-02-12T13:30:04.061Z,2.47
2019-02-12T13:33:02.179Z,2.20
2019-02-12T13:35:50.417Z,1.67
2019-02-12T13:38:38.257Z,2.20
2019-02-12T13:41:26.111Z,1.80
2019-02-12T13:44:14.026Z,2.20
2019-02-12T13:47:01.869Z,1.50
2019-02-12T13:49:49.721Z,2.33
2019-02-12T13:52:37.604Z,2.00
2019-02-12T13:58:05.036Z,2.60
2019-02-12T14:00:46.151Z,2.57
2019-02-12T14:03:30.237Z,2.23
2019-02-12T14:06:11.249Z,2.80
2019-02-12T14:08:52.274Z,2.27
2019-02-12T14:17:36.955Z,2.50
2019-02-12T14:20:17.374Z,2.90
2019-02-12T14:22:58.328Z,2.67
2019-02-12T14:25:39.351Z,2.57
2019-02-12T14:28:20.846Z,2.17
2019-02-12T14:31:01.490Z,2.60
2019-02-12T14:33:41.884Z,2.33
2019-02-12T14:36:22.599Z,2.70
2019-02-12T14:39:04.954Z,2.67
2019-02-12T14:41:45.194Z,2.13
2019-02-12T14:44:26.556Z,3.53
2019-02-12T14:47:07.578Z,2.60
2019-02-12T14:49:48.510Z,2.27
2019-02-12T14:52:29.163Z,2.80
2019-02-12T14:55:10.053Z,2.50
2019-02-12T14:57:51.225Z,1.90
2019-02-12T15:00:40.612Z,2.30
2019-02-12T15:03:28.340Z,2.30
2019-02-12T15:06:16.114Z,2.20
2019-02-12T15:08:57.093Z,2.37
2019-02-12T15:11:37.521Z,2.10
2019-02-12T15:17:31.343Z,2.10
2019-02-12T15:20:11.847Z,2.20
2019-02-12T15:22:52.746Z,2.17
2019-02-12T15:25:41.633Z,2.40
2019-02-12T15:28:16.330Z,2.00
2019-02-12T15:30:56.773Z,2.33
2019-02-12T15:33:37.549Z,2.73
2019-02-12T15:36:18.124Z,2.50
2019-02-12T15:38:58.903Z,2.23
2019-02-12T15:41:39.754Z,2.63
2019-02-12T15:44:20.819Z,2.50
2019-02-12T15:47:01.633Z,2.50
2019-02-12T15:49:42.520Z,2.50
2019-02-12T15:52:23.291Z,2.90
2019-02-12T15:55:04.398Z,2.73
2019-02-12T15:57:45.907Z,2.30
2019-02-12T16:00:27.182Z,2.63
2019-02-12T16:03:07.710Z,3.33
2019-02-12T16:05:48.656Z,2.37
2019-02-12T16:08:30.483Z,2.70
2019-02-12T16:11:12.244Z,2.53
2019-02-12T16:13:56.716Z,2.37
2019-02-12T16:16:37.523Z,3.20
2019-02-12T16:19:18.924Z,2.70
2019-02-12T16:22:00.118Z,3.37
2019-02-12T16:24:41.020Z,2.77
2019-02-12T16:27:22.728Z,2.50
2019-02-12T16:30:03.864Z,2.93
2019-02-12T16:32:44.567Z,3.27
2019-02-12T16:35:25.450Z,2.60
2019-02-12T16:38:06.619Z,3.00
2019-02-12T16:40:47.229Z,2.90
2019-02-12T16:43:28.618Z,2.63
2019-02-12T16:46:09.085Z,2.63
2019-02-12T16:48:49.807Z,2.90
2019-02-12T16:51:30.368Z,6.63
2019-02-12T16:54:11.374Z,3.07
2019-02-12T16:56:52.068Z,3.00
2019-02-12T16:59:33.124Z,3.67
2019-02-12T17:02:13.776Z,3.00
2019-02-12T17:04:57.678Z,3.27
2019-02-12T17:07:38.562Z,3.33
2019-02-12T17:10:19.261Z,3.00
2019-02-12T17:12:59.867Z,3.53
2019-02-12T17:15:40.572Z,3.00
2019-02-12T17:18:21.608Z,3.30
2019-02-12T17:21:02.704Z,3.40
2019-02-12T17:23:43.399Z,3.90
2019-02-12T17:26:24.189Z,2.93
2019-02-12T17:31:51.594Z,3.77
2019-02-12T17:34:32.040Z,3.70
2019-02-12T17:37:16.025Z,4.60
2019-02-12T17:39:57.190Z,4.00
2019-02-12T17:42:37.901Z,3.70
2019-02-12T17:45:18.948Z,3.57
2019-02-12T17:47:59.193Z,3.50
2019-02-12T17:50:40.187Z,4.00
2019-02-12T17:53:21.272Z,4.07
2019-02-12T17:55:50.096Z,3.53
2019-02-12T17:58:37.946Z,4.43
2019-02-12T18:01:25.808Z,4.37
2019-02-12T18:04:13.554Z,3.90
2019-02-12T18:07:01.358Z,4.33
2019-02-12T18:09:49.091Z,4.23
2019-02-12T18:12:36.849Z,4.30
2019-02-12T18:15:24.589Z,4.63
2019-02-12T18:18:12.368Z,3.83
2019-02-12T18:21:00.125Z,4.57
2019-02-12T18:23:47.990Z,4.97
2019-02-12T18:26:35.743Z,4.80
2019-02-12T18:29:23.514Z,4.90
2019-02-12T18:32:03.738Z,5.53
2019-02-12T18:34:44.861Z,4.83
2019-02-12T18:37:25.930Z,4.77
2019-02-12T18:40:06.732Z,4.87
2019-02-12T18:42:47.472Z,5.57
2019-02-12T18:45:28.597Z,5.27
2019-02-12T18:48:09.501Z,5.03
2019-02-12T18:50:50.426Z,4.33
2019-02-12T18:53:31.544Z,5.70
2019-02-12T18:56:12.734Z,5.17
2019-02-12T18:58:53.135Z,5.43
2019-02-12T19:01:34.383Z,5.33
2019-02-12T19:04:14.984Z,5.67
2019-02-12T19:06:55.125Z,5.80
2019-02-12T19:09:36.334Z,6.50
2019-02-12T19:12:16.671Z,6.50
2019-02-12T19:14:57.405Z,6.50
2019-02-12T19:17:38.362Z,6.70
2019-02-12T19:20:19.149Z,7.63
2019-02-12T19:22:59.770Z,7.83
2019-02-12T19:25:40.389Z,7.67
2019-02-12T19:28:21.087Z,8.40
2019-02-12T19:31:02.070Z,7.63
2019-02-12T19:33:42.958Z,8.43
2019-02-12T19:36:24.227Z,7.93
2019-02-12T19:39:05.091Z,9.00
2019-02-12T19:41:46.106Z,8.00
2019-02-12T19:44:26.814Z,8.17
2019-02-12T19:47:07.520Z,8.53
2019-02-12T19:49:48.417Z,9.33
2019-02-12T19:52:29.403Z,9.73
2019-02-12T19:55:10.455Z,9.10
2019-02-12T19:57:51.210Z,9.80
2019-02-12T20:00:31.972Z,9.50
2019-02-12T20:03:12.950Z,8.67
2019-02-12T20:05:53.660Z,9.80
2019-02-12T20:08:35.055Z,9.80
2019-02-12T20:11:15.781Z,9.47
2019-02-12T20:13:56.700Z,10.03
2019-02-12T20:16:25.206Z,9.57
2019-02-12T20:19:13.009Z,10.40
2019-02-12T20:22:00.757Z,10.57
2019-02-12T20:24:29.216Z,10.57
2019-02-12T20:27:17.937Z,10.50
2019-02-12T20:30:26.258Z,10.30
2019-02-12T20:33:14.401Z,10.60
2019-02-12T20:36:02.224Z,11.53
2019-02-12T20:38:49.977Z,11.37
2019-02-12T20:41:37.758Z,11.37
2019-02-12T20:44:25.509Z,10.70
2019-02-12T20:47:13.308Z,10.90
2019-02-12T20:50:01.403Z,10.50
2019-02-12T20:52:49.249Z,11.03
2019-02-12T20:55:37.109Z,11.23
2019-02-12T20:58:24.924Z,11.50
2019-02-12T21:01:12.715Z,11.23
2019-02-12T21:03:53.166Z,11.37
2019-02-12T21:06:34.047Z,11.90
2019-02-12T21:09:14.513Z,11.20
2019-02-12T21:11:55.539Z,11.27
2019-02-12T21:14:42.048Z,10.97
2019-02-12T21:17:22.783Z,12.07
2019-02-12T21:20:03.751Z,11.27
2019-02-12T21:22:44.254Z,11.77
2019-02-12T21:25:25.316Z,9.73
2019-02-12T21:28:08.931Z,11.37
2019-02-12T21:30:49.958Z,12.47
2019-02-12T21:33:30.468Z,11.90
2019-02-12T21:36:11.077Z,12.77
2019-02-12T21:38:51.817Z,12.57
2019-02-12T21:44:17.135Z,13.30
2019-02-12T21:46:57.927Z,13.33
2019-02-12T21:49:40.767Z,12.33
2019-02-12T21:52:21.609Z,12.90
2019-02-12T21:55:02.403Z,13.37
2019-02-12T21:57:43.336Z,13.60
2019-02-12T22:00:24.304Z,13.20
2019-02-12T22:03:04.937Z,13.23
2019-02-12T22:05:45.180Z,13.10
2019-02-12T22:08:25.903Z,14.00
2019-02-12T22:11:06.870Z,14.00
2019-02-12T22:13:48.408Z,14.70
2019-02-12T22:16:30.825Z,13.63
2019-02-12T22:19:11.960Z,14.50
2019-02-12T22:21:52.910Z,14.60
2019-02-12T22:24:33.686Z,17.77
2019-02-12T22:27:15.809Z,15.27
2019-02-12T22:29:58.445Z,14.63
2019-02-12T22:32:39.686Z,15.40
2019-02-12T22:35:23.691Z,15.50
2019-02-12T22:37:52.217Z,15.10
2019-02-12T22:40:39.963Z,15.27
2019-02-12T22:43:27.983Z,16.27
2019-02-12T22:46:15.727Z,15.63
2019-02-12T22:49:03.577Z,15.47
2019-02-12T22:51:51.350Z,13.80
2019-02-12T22:54:39.545Z,15.50
2019-02-12T22:57:27.694Z,16.13
2019-02-12T23:00:36.490Z,17.20
2019-02-12T23:06:19.825Z,16.13
2019-02-12T23:09:09.288Z,15.87
2019-02-12T23:11:57.044Z,17.07
2019-02-12T23:14:37.761Z,15.00
2019-02-12T23:17:18.518Z,11.10
2019-02-12T23:19:59.602Z,16.87
2019-02-12T23:25:23.707Z,17.23
2019-02-12T23:33:42.833Z,17.47
2019-02-12T23:36:23.687Z,18.63
2019-02-12T23:39:04.605Z,17.57
2019-02-12T23:41:45.413Z,11.97
2019-02-12T23:44:26.082Z,18.33
2019-02-12T23:47:06.583Z,18.20
2019-02-12T23:49:47.595Z,19.53
2019-02-12T23:52:28.432Z,16.77
2019-02-12T23:55:09.261Z,19.40
2019-02-12T23:57:49.810Z,17.77
